Time,TemperatureF,DewpointF,PressureIn,WindDirection,WindDirectionDegrees,WindSpeedMPH,WindSpeedGustMPH,Humidity,HourlyPrecipIn,Conditions,Clouds,dailyrainin,SoftwareType,DateUTC
2013-11-04 00:42:00,32.0,24.0,-100.00,North,0,12.0,22.0,70,-99.99,,,-99.99,,2013-11-04 08:42:00,
2013-11-04 01:21:00,33.0,24.0,-100.00,NNW,335,14.0,24.0,71,-99.99,,,-99.99,,2013-11-04 09:21:00,
2013-11-04 01:43:00,33.0,25.0,-100.00,North,0,16.0,26.0,72,-99.99,,,-99.99,,2013-11-04 09:43:00,
2013-11-04 02:42:00,32.0,24.0,-100.00,NW,320,13.0,21.0,73,-99.99,,,-99.99,,2013-11-04 10:42:00,
2013-11-04 03:42:00,32.0,25.0,-100.00,NNW,345,13.0,21.0,76,-99.99,,,-99.99,,2013-11-04 11:42:00,
2013-11-04 04:42:00,31.0,25.0,-100.00,North,0,12.0,23.0,79,-99.99,,,-99.99,,2013-11-04 12:42:00,
2013-11-04 06:42:00,32.0,25.0,-100.00,NNW,330,12.0,21.0,75,-99.99,,,-99.99,,2013-11-04 14:42:00,
2013-11-04 07:11:00,32.0,25.0,-100.00,North,0,12.0,22.0,74,-99.99,,,-99.99,,2013-11-04 15:11:00,
2013-11-04 07:21:00,32.0,24.0,-100.00,NW,325,12.0,20.0,72,-99.99,,,-99.99,,2013-11-04 15:21:00,
2013-11-04 07:42:00,33.0,24.0,-100.00,NW,325,11.0,22.0,70,-99.99,,,-99.99,,2013-11-04 15:42:00,
2013-11-04 08:12:00,33.0,23.0,-100.00,NNW,335,12.0,21.0,65,-99.99,,,-99.99,,2013-11-04 16:12:00,
2013-11-04 08:23:00,34.0,23.0,-100.00,NNW,330,11.0,20.0,63,-99.99,,,-99.99,,2013-11-04 16:23:00,
2013-11-04 08:43:00,34.0,22.0,-100.00,North,0,14.0,22.0,61,-99.99,,,-99.99,,2013-11-04 16:43:00,
2013-11-04 08:53:00,33.0,23.0,-100.00,North,0,12.0,21.0,65,-99.99,,,-99.99,,2013-11-04 16:53:00,
2013-11-04 09:12:00,33.0,24.0,-100.00,North,0,10.0,17.0,68,-99.99,,,-99.99,,2013-11-04 17:12:00,
2013-11-04 10:42:00,35.0,24.0,-100.00,NW,325,12.0,21.0,62,-99.99,,,-99.99,,2013-11-04 18:42:00,
2013-11-04 10:52:00,36.0,23.0,-100.00,NW,325,16.0,22.0,57,-99.99,,,-99.99,,2013-11-04 18:52:00,
2013-11-04 11:01:00,36.0,23.0,-100.00,NW,325,16.0,22.0,57,-99.99,,,-99.99,,2013-11-04 19:01:00,
2013-11-04 11:42:00,38.0,21.0,-100.00,NNW,330,12.0,21.0,50,-99.99,,,-99.99,,2013-11-04 19:42:00,
2013-11-04 12:42:00,40.0,20.0,-100.00,NW,325,12.0,21.0,43,-99.99,,,-99.99,,2013-11-04 20:42:00,
2013-11-04 13:44:00,42.0,19.0,-100.00,NNW,330,12.0,24.0,38,-99.99,,,-99.99,,2013-11-04 21:44:00,
2013-11-04 14:43:00,45.0,18.0,-100.00,North,0,14.0,23.0,33,-99.99,,,-99.99,,2013-11-04 22:43:00,
2013-11-04 14:53:00,45.0,18.0,-100.00,North,0,14.0,24.0,33,-99.99,,,-99.99,,2013-11-04 22:53:00,
2013-11-04 15:02:00,45.0,18.0,-100.00,North,0,14.0,24.0,33,-99.99,,,-99.99,,2013-11-04 23:02:00,
2013-11-04 15:43:00,45.0,18.0,-100.00,NNW,340,12.0,26.0,34,-99.99,,,-99.99,,2013-11-04 23:43:00,
2013-11-04 16:42:00,44.0,19.0,-100.00,NW,325,11.0,19.0,36,-99.99,,,-99.99,,2013-11-05 00:42:00,
2013-11-04 17:42:00,41.0,20.0,-100.00,NW,325,4.0,11.0,42,-99.99,,,-99.99,,2013-11-05 01:42:00,
2013-11-04 17:52:00,41.0,20.0,-100.00,NNW,330,6.0,12.0,43,-99.99,,,-99.99,,2013-11-05 01:52:00,
2013-11-04 18:11:00,40.0,20.0,-100.00,NNW,345,6.0,14.0,43,-99.99,,,-99.99,,2013-11-05 02:11:00,
2013-11-04 19:44:00,39.0,20.0,-100.00,NNW,345,6.0,14.0,47,-99.99,,,-99.99,,2013-11-05 03:44:00,
2013-11-04 20:13:00,39.0,21.0,-100.00,North,350,6.0,11.0,49,-99.99,,,-99.99,,2013-11-05 04:13:00,
2013-11-04 20:43:00,38.0,22.0,-100.00,NNW,340,6.0,12.0,51,-99.99,,,-99.99,,2013-11-05 04:43:00,
2013-11-04 20:53:00,38.0,22.0,-100.00,NW,315,5.0,12.0,51,-99.99,,,-99.99,,2013-11-05 04:53:00,
2013-11-04 21:03:00,38.0,22.0,-100.00,NW,315,5.0,12.0,51,-99.99,,,-99.99,,2013-11-05 05:03:00,
2013-11-04 21:43:00,38.0,22.0,-100.00,North,0,7.0,14.0,52,-99.99,,,-99.99,,2013-11-05 05:43:00,
2013-11-04 22:42:00,38.0,23.0,-100.00,NNW,335,6.0,11.0,54,-99.99,,,-99.99,,2013-11-05 06:42:00,
2013-11-04 23:42:00,34.0,22.0,-100.00,SE,145,0.0,4.0,60,-99.99,,,-99.99,,2013-11-05 07:42:00,